Time;durP1;ratioP1;P1;durP2;ratioP2;P2;SDS_P1;SDS_P2;PMS_P1;PMS_P2;Temp;Humidity;BMP_temperature;BMP_pressure;BME280_temperature;BME280_humidity;BME280_pressure;Samples;Min_cycle;Max_cycle;Signal;HPM_P1;HPM_P2
2023/01/30 00:02:08;;;;;;;0.70;0.70;;;2.10;99.90;;;;;;4424481;32;20081;-60
2023/01/30 00:04:33;;;;;;;0.60;0.60;;;2.10;99.90;;;;;;4423320;32;20618;-59
2023/01/30 00:06:59;;;;;;;0.50;0.50;;;2.10;99.90;;;;;;4426077;32;20098;-60
2023/01/30 00:09:24;;;;;;;2.50;0.90;;;2.20;99.90;;;;;;4424096;32;20093;-60
2023/01/30 00:11:50;;;;;;;0.57;0.57;;;2.10;99.90;;;;;;4425591;32;20453;-59
2023/01/30 00:14:15;;;;;;;0.50;0.50;;;2.10;99.90;;;;;;4425088;32;20085;-60
2023/01/30 00:16:41;;;;;;;0.40;0.40;;;2.10;99.90;;;;;;4425325;32;20098;-60
2023/01/30 00:19:07;;;;;;;0.40;0.40;;;2.10;99.90;;;;;;4408910;32;20069;-59
2023/01/30 00:21:32;;;;;;;0.40;0.40;;;2.10;99.90;;;;;;4424696;32;20327;-60
2023/01/30 00:23:59;;;;;;;0.75;0.75;;;2.10;99.90;;;;;;4424598;32;20078;-59
2023/01/30 00:26:25;;;;;;;1.27;1.08;;;2.10;99.90;;;;;;4422954;32;21155;-60
2023/01/30 00:28:50;;;;;;;1.35;1.25;;;2.10;99.90;;;;;;4411041;32;20443;-61
2023/01/30 00:31:16;;;;;;;0.85;0.85;;;2.10;99.90;;;;;;4422350;32;20058;-61
2023/01/30 00:33:41;;;;;;;0.50;0.50;;;2.20;99.90;;;;;;4410182;32;20108;-61
2023/01/30 00:36:09;;;;;;;1.10;1.08;;;2.20;99.90;;;;;;4424115;32;20081;-62
2023/01/30 00:38:35;;;;;;;0.90;0.90;;;2.20;99.90;;;;;;4422818;32;20113;-61
2023/01/30 00:41:00;;;;;;;0.43;0.43;;;2.20;99.90;;;;;;4424970;32;20069;-61
2023/01/30 00:47:19;;;;;;;0.45;0.45;;;2.10;99.90;;;;;;4411872;32;20569;-61
2023/01/30 00:49:05;;;;;;;0.43;0.43;;;2.10;99.90;;;;;;4401961;32;20074;-60
2023/01/30 00:51:30;;;;;;;3.75;2.25;;;2.10;99.90;;;;;;4424263;32;20082;-60
2023/01/30 00:53:56;;;;;;;0.70;0.70;;;2.10;99.90;;;;;;4424065;32;20084;-60
2023/01/30 00:56:21;;;;;;;0.65;0.65;;;2.00;99.90;;;;;;4424276;32;20072;-60
2023/01/30 00:58:47;;;;;;;0.73;0.73;;;2.10;99.90;;;;;;4422704;32;20569;-60
2023/01/30 01:01:12;;;;;;;0.80;0.80;;;2.10;99.90;;;;;;4426153;32;20100;-61
2023/01/30 01:03:38;;;;;;;0.60;0.60;;;2.10;99.90;;;;;;4424862;32;20094;-62
2023/01/30 01:06:03;;;;;;;0.50;0.50;;;2.10;99.90;;;;;;4424695;32;20097;-60
2023/01/30 01:08:29;;;;;;;0.70;0.70;;;2.10;99.90;;;;;;4422244;32;20061;-60
2023/01/30 01:10:54;;;;;;;0.40;0.40;;;2.10;99.90;;;;;;4423521;32;20128;-61
2023/01/30 01:13:20;;;;;;;1.55;1.00;;;2.10;99.90;;;;;;4408597;32;20093;-60
2023/01/30 01:15:45;;;;;;;0.50;0.50;;;2.10;99.90;;;;;;4420267;32;20086;-62
2023/01/30 01:18:11;;;;;;;1.15;1.05;;;2.10;99.90;;;;;;4423863;32;20109;-60
2023/01/30 01:20:36;;;;;;;0.90;0.85;;;2.10;99.90;;;;;;4425220;32;20105;-59
2023/01/30 01:23:02;;;;;;;0.75;0.75;;;2.10;99.90;;;;;;4423652;32;20093;-61
2023/01/30 01:25:27;;;;;;;0.95;0.95;;;2.00;99.90;;;;;;4407957;32;20074;-60
2023/01/30 01:27:53;;;;;;;0.50;0.50;;;2.00;99.90;;;;;;4424936;32;20097;-61
2023/01/30 01:30:18;;;;;;;0.50;0.50;;;2.00;99.90;;;;;;4423171;32;20093;-61
2023/01/30 01:32:44;;;;;;;0.82;0.82;;;2.00;99.90;;;;;;4424760;32;20070;-59
2023/01/30 01:35:10;;;;;;;0.47;0.47;;;2.00;99.90;;;;;;4423385;32;20073;-60
2023/01/30 01:37:35;;;;;;;0.40;0.40;;;2.00;99.90;;;;;;4409007;32;20564;-60
2023/01/30 01:41:01;;;;;;;1.27;1.15;;;2.10;99.90;;;;;;4423747;32;20081;-60
2023/01/30 01:42:46;;;;;;;0.95;0.95;;;2.10;99.90;;;;;;4410929;32;20867;-61
2023/01/30 01:45:17;;;;;;;0.88;0.88;;;2.00;99.90;;;;;;4424111;32;20147;-59
2023/01/30 01:47:46;;;;;;;0.40;0.40;;;2.00;99.90;;;;;;4425722;32;20513;-60
2023/01/30 01:50:18;;;;;;;0.70;0.70;;;2.00;99.90;;;;;;4424140;32;20081;-61
2023/01/30 01:52:47;;;;;;;0.68;0.68;;;2.00;99.90;;;;;;4409836;32;20089;-61
2023/01/30 01:55:14;;;;;;;0.40;0.40;;;2.00;99.90;;;;;;4422499;32;20097;-60
2023/01/30 01:57:46;;;;;;;0.43;0.43;;;2.10;99.90;;;;;;4424001;32;20087;-59
2023/01/30 02:00:15;;;;;;;0.40;0.40;;;2.10;99.90;;;;;;4407530;32;20097;-61
2023/01/30 02:02:45;;;;;;;0.40;0.40;;;2.10;99.90;;;;;;4408898;32;20086;-61
2023/01/30 02:05:13;;;;;;;0.75;0.75;;;2.10;99.90;;;;;;4424355;32;20508;-60
2023/01/30 02:07:49;;;;;;;0.47;0.47;;;2.10;99.90;;;;;;4409850;32;20065;-61
2023/01/30 02:10:18;;;;;;;0.85;0.77;;;2.20;99.90;;;;;;4409334;32;20065;-60
2023/01/30 02:12:44;;;;;;;0.57;0.57;;;2.10;99.90;;;;;;4409826;32;20089;-60
2023/01/30 02:15:10;;;;;;;0.80;0.80;;;2.10;99.90;;;;;;4408940;32;20082;-60
2023/01/30 02:17:36;;;;;;;0.40;0.40;;;2.10;99.90;;;;;;4409209;32;20064;-61
2023/01/30 02:20:27;;;;;;;1.10;1.00;;;2.00;99.90;;;;;;4422286;32;20089;-60
2023/01/30 02:23:34;;;;;;;0.70;0.70;;;2.00;99.90;;;;;;4411993;32;20308;-61
2023/01/30 02:26:17;;;;;;;0.45;0.45;;;2.00;99.90;;;;;;4404460;32;20068;-61
2023/01/30 02:28:59;;;;;;;0.75;0.75;;;1.90;99.90;;;;;;4423486;32;20113;-59
2023/01/30 02:31:48;;;;;;;0.40;0.40;;;2.00;99.90;;;;;;4423185;32;20458;-61
2023/01/30 02:34:42;;;;;;;0.70;0.70;;;2.00;99.90;;;;;;4421508;32;20120;-60
2023/01/30 02:37:33;;;;;;;0.77;0.77;;;2.00;99.90;;;;;;4410627;32;20128;-60
2023/01/30 02:40:19;;;;;;;0.70;0.70;;;2.10;99.90;;;;;;4422836;32;20108;-60
2023/01/30 02:43:12;;;;;;;0.73;0.73;;;2.10;99.90;;;;;;4411557;32;20097;-60
2023/01/30 02:45:49;;;;;;;1.45;0.93;;;2.10;99.90;;;;;;4410979;32;20082;-61
2023/01/30 02:48:29;;;;;;;0.40;0.40;;;2.00;99.90;;;;;;4422921;32;20057;-61
2023/01/30 02:51:02;;;;;;;0.40;0.40;;;2.00;99.90;;;;;;4422679;32;20132;-60
2023/01/30 02:53:35;;;;;;;2.83;0.88;;;2.00;99.90;;;;;;4422143;32;20525;-61
2023/01/30 02:56:01;;;;;;;0.40;0.40;;;1.90;99.90;;;;;;4424053;32;20123;-60
2023/01/30 02:58:33;;;;;;;2.92;1.77;;;1.90;99.90;;;;;;4422949;32;20061;-61
2023/01/30 03:01:19;;;;;;;0.70;0.70;;;1.90;99.90;;;;;;4423395;32;20081;-60
2023/01/30 03:03:59;;;;;;;0.60;0.60;;;1.80;99.90;;;;;;4422857;32;20497;-61
2023/01/30 03:06:32;;;;;;;0.40;0.40;;;1.80;99.90;;;;;;4422367;32;20538;-60
2023/01/30 03:09:07;;;;;;;0.60;0.60;;;1.80;99.90;;;;;;4408269;32;20069;-61
2023/01/30 03:11:46;;;;;;;0.60;0.60;;;1.80;99.90;;;;;;4423356;32;20439;-61
2023/01/30 03:14:20;;;;;;;1.75;0.85;;;1.90;99.90;;;;;;4408356;32;20454;-60
2023/01/30 03:16:47;;;;;;;0.60;0.60;;;1.90;99.90;;;;;;4408808;32;20120;-61
2023/01/30 03:19:13;;;;;;;0.50;0.50;;;1.90;99.90;;;;;;4408015;32;20308;-61
2023/01/30 03:21:41;;;;;;;1.85;1.08;;;1.90;99.90;;;;;;4404780;32;20148;-59
2023/01/30 03:24:06;;;;;;;0.60;0.60;;;2.00;99.90;;;;;;4420317;32;20607;-60
2023/01/30 03:26:36;;;;;;;1.98;0.98;;;2.00;99.90;;;;;;4423488;32;20192;-60
2023/01/30 03:29:01;;;;;;;0.50;0.50;;;2.00;99.90;;;;;;4422248;32;20129;-60
2023/01/30 03:31:27;;;;;;;6.85;1.60;;;2.10;99.90;;;;;;4410712;32;20156;-61
2023/01/30 03:33:52;;;;;;;3.75;1.70;;;2.10;99.90;;;;;;4421915;32;20161;-61
2023/01/30 03:36:18;;;;;;;1.70;0.80;;;2.10;99.90;;;;;;4425395;32;20078;-61
2023/01/30 03:38:43;;;;;;;0.85;0.85;;;2.10;99.90;;;;;;4426659;32;20097;-60
2023/01/30 03:41:09;;;;;;;0.47;0.47;;;2.20;99.90;;;;;;4424645;32;20520;-61
2023/01/30 03:43:34;;;;;;;0.50;0.50;;;2.20;99.90;;;;;;4422966;32;20552;-60
2023/01/30 03:46:00;;;;;;;0.62;0.62;;;2.20;99.90;;;;;;4412075;32;20066;-60
2023/01/30 03:48:25;;;;;;;0.40;0.40;;;2.20;99.90;;;;;;4425023;32;20093;-60
2023/01/30 03:50:51;;;;;;;1.25;1.15;;;2.30;99.90;;;;;;4411374;32;20069;-61
2023/01/30 03:53:16;;;;;;;0.60;0.60;;;2.30;99.90;;;;;;4422869;32;20943;-60
2023/01/30 03:55:43;;;;;;;0.52;0.52;;;2.30;99.90;;;;;;4426046;32;20480;-60
2023/01/30 03:58:09;;;;;;;0.60;0.60;;;2.40;99.90;;;;;;4410697;32;20089;-61
2023/01/30 04:00:34;;;;;;;0.50;0.50;;;2.30;99.90;;;;;;4425210;32;20148;-61
2023/01/30 04:03:00;;;;;;;0.50;0.50;;;2.30;99.90;;;;;;4410639;32;20089;-60
2023/01/30 04:05:25;;;;;;;0.45;0.45;;;2.30;99.90;;;;;;4425903;32;20498;-60
2023/01/30 04:07:54;;;;;;;0.40;0.40;;;2.30;99.90;;;;;;4411648;32;20077;-61
2023/01/30 04:10:20;;;;;;;0.60;0.60;;;2.30;99.90;;;;;;4412032;32;20061;-61
2023/01/30 04:12:46;;;;;;;4.87;1.48;;;2.30;99.90;;;;;;4425621;32;20068;-60
2023/01/30 04:15:12;;;;;;;1.30;1.08;;;2.30;99.90;;;;;;4411360;32;20082;-61
2023/01/30 04:17:38;;;;;;;0.52;0.52;;;2.40;99.90;;;;;;4425399;32;20532;-59
2023/01/30 04:20:04;;;;;;;0.88;0.88;;;2.40;99.90;;;;;;4410804;32;20081;-61
2023/01/30 04:22:30;;;;;;;0.90;0.65;;;2.40;99.90;;;;;;4409967;32;20096;-60
2023/01/30 04:24:55;;;;;;;1.65;1.30;;;2.40;99.90;;;;;;4410522;32;20541;-60
2023/01/30 04:27:21;;;;;;;0.50;0.50;;;2.50;99.90;;;;;;4423872;32;20074;-60
2023/01/30 04:29:46;;;;;;;0.40;0.40;;;2.50;99.90;;;;;;4423532;32;20124;-62
2023/01/30 04:32:12;;;;;;;0.60;0.60;;;2.50;99.90;;;;;;4425707;32;20528;-61
2023/01/30 04:34:37;;;;;;;0.70;0.70;;;2.60;99.90;;;;;;4424283;32;20077;-60
2023/01/30 04:37:02;;;;;;;0.65;0.65;;;2.60;99.90;;;;;;4424987;32;20260;-61
2023/01/30 04:39:28;;;;;;;1.25;0.88;;;2.60;99.90;;;;;;4423128;32;20097;-61
2023/01/30 04:41:53;;;;;;;0.57;0.57;;;2.70;99.90;;;;;;4411165;32;20403;-59
2023/01/30 04:44:19;;;;;;;0.40;0.40;;;2.70;99.90;;;;;;4424394;32;20062;-61
2023/01/30 04:46:44;;;;;;;5.37;1.77;;;2.80;99.90;;;;;;4426424;32;20583;-62
2023/01/30 04:49:10;;;;;;;0.50;0.50;;;2.80;99.90;;;;;;4424229;32;20085;-61
2023/01/30 04:51:36;;;;;;;3.72;1.55;;;2.80;99.90;;;;;;4409563;32;20519;-60
2023/01/30 04:54:01;;;;;;;0.50;0.50;;;2.90;99.90;;;;;;4409342;32;20090;-60
2023/01/30 04:56:27;;;;;;;0.77;0.77;;;2.90;99.90;;;;;;4424937;32;20085;-61
2023/01/30 04:58:52;;;;;;;0.75;0.75;;;2.90;99.90;;;;;;4410657;32;20540;-62
2023/01/30 05:01:24;;;;;;;0.60;0.60;;;2.90;99.90;;;;;;4422840;32;20520;-60
2023/01/30 05:03:50;;;;;;;0.60;0.60;;;2.90;99.90;;;;;;4423041;32;20130;-61
2023/01/30 05:06:16;;;;;;;0.98;0.90;;;2.90;99.90;;;;;;4425732;32;21260;-62
2023/01/30 05:08:41;;;;;;;0.60;0.60;;;2.80;99.90;;;;;;4422239;32;20065;-61
2023/01/30 05:11:07;;;;;;;1.65;0.90;;;2.70;99.90;;;;;;4423294;32;20061;-60
2023/01/30 05:13:32;;;;;;;0.95;0.75;;;2.70;99.90;;;;;;4425310;32;20070;-59
2023/01/30 05:15:58;;;;;;;2.35;1.52;;;2.70;99.90;;;;;;4425482;32;20081;-60
2023/01/30 05:18:23;;;;;;;0.52;0.52;;;2.60;99.90;;;;;;4424468;32;20543;-61
2023/01/30 05:20:49;;;;;;;0.60;0.60;;;2.50;99.90;;;;;;4426753;32;20056;-60
2023/01/30 05:23:15;;;;;;;0.62;0.62;;;2.50;99.90;;;;;;4409045;32;20564;-60
2023/01/30 05:25:40;;;;;;;0.70;0.70;;;2.40;99.90;;;;;;4425597;32;20153;-60
2023/01/30 05:28:06;;;;;;;3.05;0.70;;;2.30;99.90;;;;;;4421570;32;20580;-61
2023/01/30 05:30:31;;;;;;;0.40;0.40;;;2.30;99.90;;;;;;4425388;32;20073;-59
2023/01/30 05:32:57;;;;;;;0.55;0.55;;;2.30;99.90;;;;;;4423344;32;20087;-60
2023/01/30 05:35:23;;;;;;;0.50;0.50;;;2.30;99.90;;;;;;4398117;32;20062;-60
2023/01/30 05:37:50;;;;;;;1.08;1.08;;;2.30;99.90;;;;;;4409958;32;20073;-60
2023/01/30 05:40:15;;;;;;;0.70;0.70;;;2.20;99.90;;;;;;4397635;32;20195;-59
2023/01/30 05:42:40;;;;;;;0.88;0.88;;;2.20;99.90;;;;;;4424776;32;20501;-60
2023/01/30 05:45:07;;;;;;;1.55;1.02;;;2.20;99.90;;;;;;4422452;32;20117;-60
2023/01/30 05:47:32;;;;;;;1.85;1.15;;;2.20;99.90;;;;;;4424882;32;20100;-60
2023/01/30 05:49:58;;;;;;;0.60;0.60;;;2.20;99.90;;;;;;4424340;32;20084;-60
2023/01/30 05:52:23;;;;;;;0.77;0.75;;;2.30;99.90;;;;;;4410140;32;20073;-60
2023/01/30 05:54:49;;;;;;;0.60;0.60;;;2.30;99.90;;;;;;4422975;32;20070;-59
2023/01/30 05:57:14;;;;;;;1.17;1.08;;;2.30;99.90;;;;;;4423915;32;20161;-61
2023/01/30 05:59:39;;;;;;;0.47;0.47;;;2.30;99.90;;;;;;4420681;32;20077;-60
2023/01/30 06:02:05;;;;;;;1.25;1.15;;;2.40;99.90;;;;;;4410573;32;20090;-60
2023/01/30 06:04:30;;;;;;;1.45;1.25;;;2.40;99.90;;;;;;4423893;32;20087;-60
2023/01/30 06:06:56;;;;;;;0.80;0.80;;;2.40;99.90;;;;;;4423015;32;20524;-61
2023/01/30 06:09:21;;;;;;;1.00;0.90;;;2.40;99.90;;;;;;4422128;32;20123;-60
2023/01/30 06:11:47;;;;;;;0.65;0.65;;;2.50;99.90;;;;;;4422494;32;20073;-60
2023/01/30 06:14:12;;;;;;;0.50;0.50;;;2.50;99.90;;;;;;4425042;32;20066;-59
2023/01/30 06:16:38;;;;;;;0.50;0.50;;;2.50;99.90;;;;;;4441111;32;20097;-60
2023/01/30 06:19:03;;;;;;;0.70;0.70;;;2.50;99.90;;;;;;4429093;32;20132;-59
2023/01/30 06:21:29;;;;;;;0.50;0.50;;;2.60;99.90;;;;;;4442938;32;20074;-60
2023/01/30 06:23:54;;;;;;;1.35;0.93;;;2.60;99.90;;;;;;4441057;32;20101;-60
2023/01/30 06:26:20;;;;;;;0.43;0.43;;;2.60;99.90;;;;;;4430300;32;20076;-61
2023/01/30 06:28:45;;;;;;;0.40;0.40;;;2.70;99.90;;;;;;4424694;32;20172;-60
2023/01/30 06:31:11;;;;;;;19.92;3.25;;;2.70;99.90;;;;;;4422071;32;20580;-59
2023/01/30 06:33:36;;;;;;;0.40;0.40;;;2.70;99.90;;;;;;4423302;32;20138;-61
2023/01/30 06:36:02;;;;;;;0.73;0.73;;;2.70;99.90;;;;;;4423219;32;20073;-60
2023/01/30 06:38:27;;;;;;;0.70;0.70;;;2.80;99.90;;;;;;4422771;32;20065;-62
2023/01/30 06:40:53;;;;;;;0.62;0.62;;;2.80;99.90;;;;;;4405737;32;20105;-62
2023/01/30 06:43:18;;;;;;;0.85;0.85;;;2.80;99.90;;;;;;4409840;32;20095;-60
2023/01/30 06:45:44;;;;;;;5.93;1.35;;;2.90;99.90;;;;;;4424190;32;20127;-61
2023/01/30 06:48:09;;;;;;;0.50;0.50;;;2.90;99.90;;;;;;4422528;32;20061;-60
2023/01/30 06:50:35;;;;;;;0.50;0.50;;;3.00;99.90;;;;;;4424072;32;20062;-61
2023/01/30 06:53:02;;;;;;;0.98;0.98;;;3.00;99.90;;;;;;4421988;32;20102;-60
2023/01/30 06:55:28;;;;;;;0.75;0.75;;;3.00;99.90;;;;;;4406882;32;20097;-60
2023/01/30 06:58:04;;;;;;;0.43;0.43;;;3.00;99.90;;;;;;4425669;32;20097;-60
2023/01/30 07:00:30;;;;;;;0.40;0.40;;;3.10;99.90;;;;;;4412667;32;20065;-62
2023/01/30 07:02:55;;;;;;;0.50;0.50;;;3.10;99.90;;;;;;4411975;32;20688;-60
2023/01/30 07:05:21;;;;;;;0.90;0.90;;;3.20;99.90;;;;;;4425907;32;20528;-59
2023/01/30 07:07:46;;;;;;;0.73;0.73;;;3.30;99.90;;;;;;4426039;32;20093;-61
2023/01/30 07:10:12;;;;;;;0.55;0.55;;;3.30;99.90;;;;;;4410958;32;21516;-60
2023/01/30 07:12:37;;;;;;;3.50;1.45;;;3.30;99.90;;;;;;4411803;32;20196;-60
2023/01/30 07:15:05;;;;;;;0.77;0.77;;;3.40;99.90;;;;;;4423078;32;20105;-61
2023/01/30 07:17:31;;;;;;;0.40;0.40;;;3.40;99.90;;;;;;4413019;32;20168;-61
2023/01/30 07:19:56;;;;;;;0.62;0.62;;;3.50;99.90;;;;;;4412177;32;20514;-61
2023/01/30 07:22:22;;;;;;;0.85;0.85;;;3.50;99.90;;;;;;4426209;32;20062;-61
2023/01/30 07:24:47;;;;;;;0.40;0.40;;;3.50;99.90;;;;;;4412118;32;20077;-59
2023/01/30 07:27:13;;;;;;;0.62;0.60;;;3.50;99.90;;;;;;4426956;32;20143;-65
2023/01/30 07:29:39;;;;;;;0.55;0.55;;;3.60;99.90;;;;;;4426999;32;20074;-60
2023/01/30 07:32:06;;;;;;;0.70;0.70;;;3.60;99.90;;;;;;4412380;32;20062;-61
2023/01/30 07:34:32;;;;;;;1.20;0.77;;;3.60;99.90;;;;;;4425331;32;20065;-59
2023/01/30 07:36:58;;;;;;;0.52;0.52;;;3.60;99.90;;;;;;4412172;32;20105;-60
2023/01/30 07:39:23;;;;;;;0.47;0.47;;;3.60;99.90;;;;;;4410746;32;20085;-60
2023/01/30 07:41:49;;;;;;;0.40;0.40;;;3.60;99.90;;;;;;4426393;32;20069;-60
2023/01/30 07:44:14;;;;;;;0.50;0.50;;;3.60;99.90;;;;;;4425612;32;20084;-60
2023/01/30 07:46:39;;;;;;;0.88;0.88;;;3.60;99.90;;;;;;4425095;32;20318;-59
2023/01/30 07:49:07;;;;;;;0.70;0.70;;;3.60;99.90;;;;;;4425642;32;20077;-60
2023/01/30 07:51:32;;;;;;;0.60;0.60;;;3.60;99.90;;;;;;4426101;32;20099;-60
2023/01/30 07:53:59;;;;;;;1.35;0.93;;;3.60;99.90;;;;;;4430218;32;20100;-59
2023/01/30 07:56:25;;;;;;;1.75;1.12;;;3.60;99.90;;;;;;4431462;32;20154;-59
2023/01/30 07:58:50;;;;;;;0.43;0.43;;;3.70;99.90;;;;;;4430694;32;20066;-59
2023/01/30 08:01:16;;;;;;;0.57;0.50;;;3.70;99.90;;;;;;4430768;32;20078;-59
2023/01/30 08:03:44;;;;;;;0.47;0.47;;;3.70;99.90;;;;;;4431831;32;20152;-59
2023/01/30 08:06:11;;;;;;;2.95;0.55;;;3.70;99.90;;;;;;4431773;32;20069;-60
2023/01/30 08:08:37;;;;;;;0.62;0.62;;;3.80;99.90;;;;;;4431983;32;20066;-59
2023/01/30 08:11:02;;;;;;;0.40;0.40;;;3.80;99.90;;;;;;4426967;32;20120;-60
2023/01/30 08:13:28;;;;;;;0.52;0.52;;;3.90;99.90;;;;;;4424456;32;20077;-61
2023/01/30 08:15:53;;;;;;;0.60;0.60;;;3.90;99.90;;;;;;4425176;32;20081;-60
2023/01/30 08:18:18;;;;;;;0.50;0.50;;;4.00;99.90;;;;;;4424675;32;20085;-61
2023/01/30 08:20:44;;;;;;;0.40;0.40;;;4.10;99.90;;;;;;4425296;32;20120;-61
2023/01/30 08:23:09;;;;;;;0.50;0.50;;;4.20;99.90;;;;;;4424307;32;20092;-61
2023/01/30 08:25:36;;;;;;;1.17;0.60;;;4.30;99.90;;;;;;4427302;32;20093;-60
2023/01/30 08:28:02;;;;;;;0.60;0.60;;;4.40;99.90;;;;;;4410109;32;20097;-61
2023/01/30 08:30:29;;;;;;;1.98;0.60;;;4.50;99.90;;;;;;4410068;32;20805;-61
2023/01/30 08:32:55;;;;;;;0.40;0.40;;;4.60;99.90;;;;;;4410088;32;20144;-59
2023/01/30 08:35:20;;;;;;;1.05;0.65;;;4.60;99.90;;;;;;4424780;32;20398;-60
2023/01/30 08:37:46;;;;;;;0.50;0.50;;;4.60;99.90;;;;;;4424352;32;20102;-60
2023/01/30 08:40:12;;;;;;;0.50;0.50;;;4.70;99.90;;;;;;4424465;32;20229;-60
2023/01/30 08:42:37;;;;;;;0.40;0.40;;;4.70;99.90;;;;;;4423004;32;20477;-61
2023/01/30 08:45:03;;;;;;;0.30;0.30;;;4.70;99.90;;;;;;4410494;32;20074;-59
2023/01/30 08:47:29;;;;;;;0.43;0.43;;;4.70;99.90;;;;;;4425264;32;20114;-60
2023/01/30 08:49:54;;;;;;;25.65;0.80;;;4.80;99.90;;;;;;4409872;32;20106;-60
2023/01/30 08:52:20;;;;;;;0.32;0.32;;;4.70;99.90;;;;;;4423939;32;20086;-60
2023/01/30 08:54:46;;;;;;;0.40;0.40;;;4.70;99.90;;;;;;4410828;32;20176;-62
2023/01/30 08:57:13;;;;;;;0.50;0.50;;;4.70;99.90;;;;;;4410625;32;20065;-59
2023/01/30 08:59:38;;;;;;;0.40;0.40;;;4.80;99.90;;;;;;4424215;32;20488;-59
2023/01/30 09:02:04;;;;;;;0.50;0.50;;;4.80;99.90;;;;;;4421330;32;20069;-60
2023/01/30 09:04:30;;;;;;;0.47;0.47;;;4.80;99.90;;;;;;4420640;32;20082;-59
2023/01/30 09:06:55;;;;;;;0.43;0.43;;;4.90;99.90;;;;;;4409138;32;20061;-60
2023/01/30 09:09:21;;;;;;;0.43;0.43;;;4.80;99.90;;;;;;4423113;32;20085;-59
2023/01/30 09:11:47;;;;;;;0.47;0.47;;;4.90;99.90;;;;;;4424736;32;20140;-60
2023/01/30 09:14:15;;;;;;;0.50;0.50;;;4.90;99.90;;;;;;4408580;32;20123;-60
2023/01/30 09:16:40;;;;;;;0.30;0.30;;;4.90;99.90;;;;;;4399134;32;20077;-59
2023/01/30 09:19:06;;;;;;;0.50;0.50;;;5.00;99.90;;;;;;4431108;32;20057;-60
2023/01/30 09:21:31;;;;;;;0.30;0.30;;;5.00;99.90;;;;;;4417255;32;20117;-60
2023/01/30 09:23:56;;;;;;;0.40;0.40;;;5.00;99.90;;;;;;4428834;32;20120;-57
2023/01/30 09:26:22;;;;;;;0.30;0.30;;;5.00;99.90;;;;;;4431226;32;20089;-57
2023/01/30 09:28:48;;;;;;;0.45;0.45;;;5.10;99.90;;;;;;4432239;32;20115;-59
2023/01/30 09:31:13;;;;;;;0.40;0.40;;;5.10;99.90;;;;;;4439815;32;20560;-59
2023/01/30 09:33:39;;;;;;;0.47;0.47;;;5.20;99.90;;;;;;4424630;32;20081;-59
2023/01/30 09:36:05;;;;;;;0.40;0.40;;;5.20;99.90;;;;;;4438597;32;20089;-60
2023/01/30 09:38:30;;;;;;;0.40;0.40;;;5.20;99.90;;;;;;4425257;32;20376;-59
2023/01/30 09:41:11;;;;;;;0.47;0.47;;;5.20;99.90;;;;;;4426723;32;20133;-60
2023/01/30 09:43:52;;;;;;;0.40;0.40;;;5.20;99.90;;;;;;4422460;32;20084;-60
2023/01/30 09:46:59;;;;;;;0.35;0.35;;;5.30;99.90;;;;;;4423659;32;20076;-59
2023/01/30 09:49:33;;;;;;;0.45;0.45;;;5.30;99.90;;;;;;4413780;32;20086;-60
2023/01/30 09:52:36;;;;;;;0.32;0.32;;;5.40;99.90;;;;;;4421609;32;20085;-61
2023/01/30 09:55:19;;;;;;;0.32;0.32;;;5.50;99.90;;;;;;4421712;32;20559;-60
2023/01/30 09:57:47;;;;;;;0.50;0.50;;;5.50;99.90;;;;;;4416859;32;20181;-60
2023/01/30 10:00:27;;;;;;;0.50;0.50;;;5.60;99.90;;;;;;4409718;32;20077;-61
2023/01/30 10:03:04;;;;;;;0.40;0.40;;;5.60;99.90;;;;;;4405691;32;20616;-60
2023/01/30 10:05:39;;;;;;;0.30;0.30;;;5.70;99.90;;;;;;4425321;32;20178;-59
2023/01/30 10:08:19;;;;;;;0.30;0.30;;;5.70;99.90;;;;;;4408881;32;20085;-61
2023/01/30 10:10:55;;;;;;;0.40;0.40;;;5.70;99.90;;;;;;4410163;32;20140;-59
2023/01/30 10:13:27;;;;;;;1.35;1.05;;;5.60;99.90;;;;;;4424292;32;20073;-60
2023/01/30 10:16:08;;;;;;;0.40;0.40;;;5.70;99.90;;;;;;4424828;32;20545;-60
2023/01/30 10:18:43;;;;;;;1.15;1.10;;;5.70;99.90;;;;;;4424686;32;20065;-60
2023/01/30 10:21:21;;;;;;;0.35;0.35;;;5.70;99.90;;;;;;4424845;32;20069;-60
2023/01/30 10:24:27;;;;;;;0.68;0.50;;;5.70;99.90;;;;;;4409280;32;20195;-61
2023/01/30 10:26:53;;;;;;;0.40;0.40;;;5.80;99.90;;;;;;4410757;32;20974;-59
2023/01/30 10:29:27;;;;;;;0.40;0.40;;;5.90;99.90;;;;;;4425006;32;20070;-60
2023/01/30 10:31:58;;;;;;;0.50;0.50;;;6.10;99.90;;;;;;4423193;32;20061;-60
2023/01/30 10:34:35;;;;;;;0.40;0.40;;;6.10;99.90;;;;;;4397059;32;20461;-60
2023/01/30 10:37:09;;;;;;;0.30;0.30;;;6.30;99.90;;;;;;4421306;32;20108;-59
2023/01/30 10:39:49;;;;;;;0.40;0.40;;;6.40;99.90;;;;;;4397358;32;20065;-61
2023/01/30 10:42:21;;;;;;;0.50;0.50;;;6.50;99.90;;;;;;4424527;32;20069;-59
2023/01/30 10:44:47;;;;;;;1.30;1.20;;;6.40;99.90;;;;;;4422139;32;20147;-64
2023/01/30 10:47:31;;;;;;;1.58;0.60;;;6.40;99.90;;;;;;4421872;32;20066;-60
2023/01/30 10:50:20;;;;;;;3.12;0.95;;;6.30;99.90;;;;;;4397587;32;20106;-60
2023/01/30 10:52:53;;;;;;;9.98;1.60;;;6.30;99.90;;;;;;4402084;32;20615;-61
2023/01/30 10:55:30;;;;;;;3.72;1.70;;;6.30;99.90;;;;;;4422883;32;20090;-61
2023/01/30 10:58:06;;;;;;;0.73;0.73;;;6.30;99.90;;;;;;4407652;32;20140;-60
2023/01/30 11:00:40;;;;;;;0.45;0.45;;;6.20;99.90;;;;;;4397146;32;20736;-60
2023/01/30 11:03:27;;;;;;;0.37;0.37;;;6.20;99.90;;;;;;4423077;32;20595;-60
2023/01/30 11:05:58;;;;;;;0.60;0.60;;;6.20;99.90;;;;;;4412078;32;20089;-62
2023/01/30 11:08:25;;;;;;;;;;;6.20;99.90;;;;;;4422778;32;20081;-58
2023/01/30 11:10:52;;;;;;;0.30;0.30;;;6.20;99.90;;;;;;4425251;32;19937;-59
2023/01/30 11:13:21;;;;;;;9.43;1.40;;;6.10;99.90;;;;;;4408912;32;20084;-60
2023/01/30 11:15:51;;;;;;;0.37;0.37;;;6.10;99.90;;;;;;4410034;32;20101;-62
2023/01/30 11:18:19;;;;;;;1.00;1.00;;;6.10;99.90;;;;;;4421513;32;20477;-60
2023/01/30 11:20:54;;;;;;;0.30;0.30;;;6.20;99.90;;;;;;4410837;32;20077;-59
2023/01/30 11:23:29;;;;;;;1.95;1.50;;;6.20;99.90;;;;;;4406782;32;20057;-60
2023/01/30 11:25:57;;;;;;;7.43;1.25;;;6.20;99.90;;;;;;4424173;32;20182;-59
2023/01/30 11:28:25;;;;;;;0.73;0.73;;;6.30;99.90;;;;;;4408056;32;20057;-60
2023/01/30 11:30:56;;;;;;;4.85;1.85;;;6.40;99.90;;;;;;4408722;32;20452;-60
2023/01/30 11:33:29;;;;;;;2.30;1.20;;;6.40;99.90;;;;;;4420891;32;20061;-60
2023/01/30 11:35:58;;;;;;;2.97;1.60;;;6.40;99.90;;;;;;4421187;32;20105;-59
2023/01/30 11:38:27;;;;;;;4.22;0.73;;;6.30;99.90;;;;;;4406811;32;20089;-60
2023/01/30 11:41:11;;;;;;;0.30;0.30;;;6.30;99.90;;;;;;4396632;32;20096;-60
2023/01/30 11:43:38;;;;;;;0.40;0.40;;;6.40;99.90;;;;;;4418251;32;155356;-60
2023/01/30 11:46:06;;;;;;;0.50;0.50;;;6.40;99.90;;;;;;4397943;32;20422;-60
2023/01/30 11:48:35;;;;;;;0.90;0.90;;;6.50;99.90;;;;;;4425935;32;20458;-61
2023/01/30 11:51:04;;;;;;;0.62;0.60;;;6.60;99.90;;;;;;4425779;32;20194;-60
2023/01/30 11:53:35;;;;;;;0.40;0.40;;;6.70;99.90;;;;;;4424686;32;21343;-59
2023/01/30 11:56:26;;;;;;;0.70;0.70;;;6.90;99.90;;;;;;4410138;32;20521;-60
2023/01/30 11:58:57;;;;;;;2.45;1.52;;;7.20;99.90;;;;;;4414803;32;20073;-60
2023/01/30 12:01:28;;;;;;;1.17;0.62;;;7.50;99.90;;;;;;4412762;32;20072;-59
2023/01/30 12:03:55;;;;;;;;;;;7.50;99.90;;;;;;4424485;32;20061;-61
2023/01/30 12:06:23;;;;;;;1.05;0.95;;;7.70;99.90;;;;;;4424618;32;19967;-60
2023/01/30 12:08:53;;;;;;;0.47;0.47;;;7.80;99.90;;;;;;4410398;32;20556;-60
2023/01/30 12:11:44;;;;;;;0.88;0.85;;;7.80;99.90;;;;;;4424745;32;20135;-60
2023/01/30 12:14:29;;;;;;;;;;;7.50;99.90;;;;;;4412408;32;20061;-59
2023/01/30 12:17:10;;;;;;;1.45;1.35;;;7.30;99.90;;;;;;4413100;32;19963;-60
2023/01/30 12:19:45;;;;;;;10.25;0.62;;;7.10;99.90;;;;;;4421554;32;20090;-64
2023/01/30 12:22:27;;;;;;;0.50;0.50;;;7.20;99.90;;;;;;4422448;32;20176;-60
2023/01/30 12:25:09;;;;;;;0.40;0.40;;;7.40;99.90;;;;;;4399035;32;20097;-60
2023/01/30 12:27:43;;;;;;;7.57;1.37;;;7.50;99.90;;;;;;4425108;32;20110;-60
2023/01/30 12:30:33;;;;;;;3.30;1.20;;;7.60;99.90;;;;;;4423119;32;20555;-59
2023/01/30 12:33:01;;;;;;;2.05;0.35;;;7.40;99.90;;;;;;4396008;32;20151;-60
2023/01/30 12:35:40;;;;;;;0.32;0.32;;;7.30;99.90;;;;;;4421772;32;20153;-61
2023/01/30 12:38:26;;;;;;;1.75;0.80;;;7.10;99.90;;;;;;4409491;32;20065;-62
2023/01/30 12:41:03;;;;;;;7.85;1.02;;;7.00;99.90;;;;;;4413144;32;20570;-60
2023/01/30 12:43:55;;;;;;;1.50;1.40;;;6.90;99.90;;;;;;4409595;32;20114;-60
2023/01/30 12:46:52;;;;;;;0.57;0.57;;;6.90;99.90;;;;;;4413755;32;20164;-60
2023/01/30 12:49:57;;;;;;;0.60;0.60;;;6.90;99.90;;;;;;4413440;32;20065;-60
2023/01/30 12:52:57;;;;;;;0.75;0.73;;;7.00;99.90;;;;;;4413221;32;20167;-60
2023/01/30 12:55:40;;;;;;;0.45;0.45;;;7.00;99.90;;;;;;4424472;32;20097;-60
2023/01/30 12:58:34;;;;;;;2.30;1.42;;;7.00;99.90;;;;;;4425298;32;20520;-59
2023/01/30 13:01:26;;;;;;;0.40;0.40;;;7.00;99.90;;;;;;4413002;32;20057;-61
2023/01/30 13:04:01;;;;;;;0.37;0.37;;;6.90;99.90;;;;;;4410950;32;20073;-60
2023/01/30 13:06:54;;;;;;;14.15;0.95;;;7.00;99.90;;;;;;4422080;32;20085;-61
2023/01/30 13:09:48;;;;;;;0.30;0.30;;;7.00;99.90;;;;;;4413275;32;20057;-60
2023/01/30 13:12:42;;;;;;;2.97;1.08;;;7.10;99.90;;;;;;4401929;32;20089;-60
2023/01/30 13:15:21;;;;;;;0.40;0.40;;;7.10;99.90;;;;;;4413894;32;20141;-60
2023/01/30 13:18:08;;;;;;;2.50;1.30;;;7.00;99.90;;;;;;4422281;32;20564;-60